Time;durP1;ratioP1;P1;durP2;ratioP2;P2;SDS_P1;SDS_P2;PMS_P1;PMS_P2;Temp;Humidity;BMP_temperature;BMP_pressure;BME280_temperature;BME280_humidity;BME280_pressure;Samples;Min_cycle;Max_cycle;Signal;HPM_P1;HPM_P2
2022/08/23 00:01:38;;;;;;;4.07;2.30;;;;;;;20.41;48.20;99889.09;4980314;28;20227;-69
2022/08/23 00:04:11;;;;;;;5.17;2.80;;;;;;;20.24;48.33;99886.38;4984660;28;20179;-70
2022/08/23 00:06:37;;;;;;;2.30;2.10;;;;;;;20.15;49.45;99882.03;4987313;28;20343;-69
2022/08/23 00:09:05;;;;;;;5.23;2.57;;;;;;;20.06;48.88;99882.97;4984526;28;20559;-69
2022/08/23 00:11:34;;;;;;;5.17;2.57;;;;;;;20.08;48.79;99888.84;4982098;28;20306;-69
2022/08/23 00:14:08;;;;;;;3.57;2.50;;;;;;;20.14;48.43;99893.44;4990478;28;20670;-70
2022/08/23 00:16:34;;;;;;;4.57;2.40;;;;;;;20.18;48.35;99883.53;5010239;28;20180;-70
2022/08/23 00:19:01;;;;;;;4.70;2.93;;;;;;;20.06;48.30;99882.97;4990668;28;20683;-69
2022/08/23 00:21:28;;;;;;;3.83;2.80;;;;;;;20.13;48.13;99884.81;4984547;28;20222;-70
2022/08/23 00:23:54;;;;;;;7.80;2.90;;;;;;;20.32;47.52;99883.00;4998906;28;20658;-69
2022/08/23 00:26:19;;;;;;;4.77;2.40;;;;;;;20.17;47.92;99885.34;4994265;28;20188;-70
2022/08/23 00:28:45;;;;;;;3.70;2.40;;;;;;;20.17;47.96;99882.72;4995051;28;20196;-70
2022/08/23 00:31:11;;;;;;;6.00;2.53;;;;;;;20.19;47.78;99885.97;4995125;28;20230;-70
2022/08/23 00:33:36;;;;;;;5.37;2.67;;;;;;;20.20;47.64;99879.78;4979865;28;20880;-70
2022/08/23 00:36:02;;;;;;;4.90;2.33;;;;;;;20.10;48.10;99885.09;5011993;28;20172;-70
2022/08/23 00:38:27;;;;;;;10.30;2.53;;;;;;;20.14;48.21;99889.06;4981023;28;20245;-70
2022/08/23 00:40:53;;;;;;;6.60;2.97;;;;;;;20.13;48.33;99892.66;4990714;28;20241;-70
2022/08/23 00:49:05;;;;;;;4.10;2.73;;;;;;;20.17;48.37;99890.56;4994253;28;20195;-70
2022/08/23 00:51:43;;;;;;;4.57;2.60;;;;;;;20.16;48.96;99891.53;4985955;28;20227;-70
2022/08/23 00:54:10;;;;;;;5.10;2.83;;;;;;;20.13;49.56;99892.66;4999041;28;20540;-70
2022/08/23 00:56:38;;;;;;;3.73;2.67;;;;;;;19.98;51.28;99894.13;4994802;28;20491;-70
2022/08/23 00:59:03;;;;;;;3.93;2.47;;;;;;;19.83;53.00;99891.22;4994169;28;20647;-70
2022/08/23 01:01:29;;;;;;;5.83;2.90;;;;;;;19.63;52.98;99893.13;4995148;28;20304;-70
2022/08/23 01:03:57;;;;;;;4.43;2.67;;;;;;;19.42;52.32;99899.44;4989226;28;20180;-70
2022/08/23 01:09:47;;;;;;;5.30;2.60;;;;;;;19.18;53.56;99897.38;4992834;28;20186;-70
2022/08/23 01:12:24;;;;;;;6.83;2.70;;;;;;;19.09;55.53;99899.06;4999051;28;20237;-70
2022/08/23 01:15:00;;;;;;;4.10;2.97;;;;;;;18.91;55.94;99895.56;4989531;28;20254;-70
2022/08/23 01:17:33;;;;;;;2.63;2.37;;;;;;;18.83;55.37;99896.25;4991263;28;20284;-70
2022/08/23 01:20:05;;;;;;;6.70;2.73;;;;;;;18.77;56.46;99896.81;4989336;28;20180;-70
2022/08/23 01:22:37;;;;;;;4.73;2.80;;;;;;;18.68;56.97;99899.31;4964949;28;20693;-70
2022/08/23 01:25:06;;;;;;;5.20;2.63;;;;;;;18.67;56.65;99900.25;4991664;28;20234;-70
2022/08/23 01:27:31;;;;;;;5.43;2.67;;;;;;;18.55;57.98;99896.19;4993752;28;20192;-70
2022/08/23 01:29:56;;;;;;;3.27;2.50;;;;;;;18.54;57.44;99892.75;4992495;28;20186;-72
2022/08/23 01:32:22;;;;;;;5.03;2.70;;;;;;;18.41;57.90;99894.84;4985279;28;20252;-70
2022/08/23 01:34:47;;;;;;;6.47;2.70;;;;;;;18.53;57.51;99896.31;4997530;28;20265;-71
2022/08/23 01:37:13;;;;;;;5.30;3.10;;;;;;;18.43;58.25;99898.13;4995021;28;20172;-70
2022/08/23 01:39:39;;;;;;;5.20;2.40;;;;;;;18.32;57.91;99898.25;4979559;28;20228;-70
2022/08/23 01:42:06;;;;;;;6.23;3.10;;;;;;;18.30;58.87;99901.00;4989100;28;20234;-70
2022/08/23 01:44:31;;;;;;;3.80;2.57;;;;;;;18.29;58.64;99901.97;4993110;28;20187;-70
2022/08/23 01:46:57;;;;;;;4.10;2.17;;;;;;;18.26;59.86;99917.03;4988934;28;20212;-70
2022/08/23 01:49:22;;;;;;;4.80;2.40;;;;;;;18.20;59.83;99908.00;4991788;28;20229;-71
2022/08/23 01:51:47;;;;;;;4.40;2.60;;;;;;;18.25;58.97;99903.22;4988922;28;20230;-71
2022/08/23 01:54:12;;;;;;;3.97;2.50;;;;;;;18.20;59.02;99914.03;4996583;28;20186;-71
2022/08/23 01:56:39;;;;;;;4.47;2.20;;;;;;;18.26;58.19;99912.66;4988558;28;20179;-70
2022/08/23 01:59:06;;;;;;;7.77;3.40;;;;;;;18.13;59.72;99912.13;4988832;28;20184;-70
2022/08/23 02:01:32;;;;;;;3.37;2.40;;;;;;;18.04;61.74;99917.19;4994385;28;20222;-70
2022/08/23 02:03:57;;;;;;;3.73;2.60;;;;;;;17.99;61.22;99921.97;4996381;28;20183;-73
2022/08/23 02:06:22;;;;;;;4.20;2.90;;;;;;;18.00;62.18;99910.63;5007784;28;20222;-71
2022/08/23 02:09:00;;;;;;;3.83;2.73;;;;;;;18.01;62.54;99917.47;4988438;28;20187;-70
2022/08/23 02:11:27;;;;;;;4.80;2.63;;;;;;;17.93;62.48;99913.88;5000068;28;20229;-70
2022/08/23 02:13:55;;;;;;;5.83;2.80;;;;;;;17.87;62.81;99910.88;4988257;28;20280;-71
2022/08/23 02:16:37;;;;;;;4.83;2.70;;;;;;;17.75;63.30;99914.53;4990252;28;20187;-70
2022/08/23 02:19:05;;;;;;;4.33;2.30;;;;;;;17.71;64.07;99908.78;4988206;28;20208;-71
2022/08/23 02:21:31;;;;;;;7.33;3.20;;;;;;;17.62;63.34;99912.19;4986768;28;20690;-70
2022/08/23 02:23:58;;;;;;;6.27;3.20;;;;;;;17.69;63.39;99918.50;4996277;28;20637;-72
2022/08/23 02:26:23;;;;;;;5.93;3.17;;;;;;;17.65;64.07;99916.28;4992833;28;20360;-70
2022/08/23 02:28:52;;;;;;;4.60;2.70;;;;;;;17.67;63.41;99916.97;4992708;28;20188;-70
2022/08/23 02:31:18;;;;;;;6.20;2.97;;;;;;;17.62;63.81;99917.38;4994090;28;20302;-71
2022/08/23 02:33:43;;;;;;;4.33;2.37;;;;;;;17.62;64.16;99921.78;4982004;28;20282;-70
2022/08/23 02:36:09;;;;;;;4.90;2.80;;;;;;;17.61;63.44;99914.91;4994641;28;20180;-70
2022/08/23 02:38:34;;;;;;;5.70;2.40;;;;;;;17.58;63.85;99918.59;4981955;28;20219;-70
2022/08/23 02:41:00;;;;;;;4.50;2.63;;;;;;;17.49;66.52;99919.41;4987631;28;20241;-70
2022/08/23 02:43:26;;;;;;;3.10;2.20;;;;;;;17.43;66.21;99918.16;4989603;28;20186;-70
2022/08/23 02:45:51;;;;;;;5.30;2.70;;;;;;;17.46;66.12;99923.09;5005655;28;20237;-70
2022/08/23 02:48:16;;;;;;;3.87;2.70;;;;;;;17.43;65.04;99918.16;4992140;28;20278;-70
2022/08/23 02:50:42;;;;;;;3.67;2.87;;;;;;;17.47;65.99;99923.94;4987531;28;20237;-70
2022/08/23 02:53:07;;;;;;;3.03;2.53;;;;;;;17.34;66.11;99922.38;4994079;28;20180;-70
2022/08/23 02:55:32;;;;;;;3.40;2.37;;;;;;;17.33;66.96;99928.53;5001844;28;20203;-71
2022/08/23 02:57:58;;;;;;;3.97;2.43;;;;;;;17.26;67.05;99922.22;4987758;28;20176;-71
2022/08/23 03:00:24;;;;;;;4.87;2.90;;;;;;;17.24;66.38;99921.50;4965218;28;20364;-71
2022/08/23 03:02:50;;;;;;;6.03;2.30;;;;;;;17.21;66.50;99926.97;4991068;28;20738;-70
2022/08/23 03:05:16;;;;;;;3.63;2.87;;;;;;;17.07;68.30;99926.38;4991964;28;20207;-70
2022/08/23 03:07:41;;;;;;;4.87;2.77;;;;;;;17.04;67.51;99925.81;4990154;28;20219;-69
2022/08/23 03:10:08;;;;;;;2.80;2.37;;;;;;;17.00;68.23;99925.25;4978154;28;20270;-68
2022/08/23 03:12:33;;;;;;;4.30;2.50;;;;;;;17.01;67.74;99923.47;4985635;28;20187;-69
2022/08/23 03:14:59;;;;;;;8.37;2.87;;;;;;;17.01;68.79;99926.09;4987057;28;20251;-69
2022/08/23 03:17:24;;;;;;;3.43;2.30;;;;;;;17.01;68.23;99921.69;4989775;28;20234;-69
2022/08/23 03:19:51;;;;;;;4.10;2.73;;;;;;;16.92;69.82;99923.28;4987396;28;20200;-70
2022/08/23 03:22:17;;;;;;;6.77;3.03;;;;;;;16.90;70.14;99917.38;4988246;28;20802;-70
2022/08/23 03:24:42;;;;;;;2.87;2.50;;;;;;;16.80;72.49;99929.50;4989493;28;21036;-70
2022/08/23 03:27:08;;;;;;;6.40;3.13;;;;;;;16.88;71.71;99924.47;4992092;28;20306;-70
2022/08/23 03:29:33;;;;;;;4.10;2.47;;;;;;;16.75;73.17;99924.66;4988285;28;20272;-71
2022/08/23 03:31:59;;;;;;;4.23;3.00;;;;;;;16.83;72.66;99924.06;4971895;28;20227;-70
2022/08/23 03:34:25;;;;;;;5.97;2.67;;;;;;;16.86;72.04;99922.97;4990895;28;20184;-70
2022/08/23 03:36:50;;;;;;;4.17;2.30;;;;;;;16.79;72.04;99927.84;4987440;28;20622;-70
2022/08/23 03:39:15;;;;;;;4.67;2.53;;;;;;;16.83;73.60;99936.19;4993700;28;20216;-70
2022/08/23 03:41:41;;;;;;;4.60;2.80;;;;;;;16.67;74.83;99934.06;4994698;28;20234;-70
2022/08/23 03:44:06;;;;;;;6.17;2.77;;;;;;;16.70;74.33;99933.81;4993985;28;20226;-70
2022/08/23 03:46:32;;;;;;;5.77;2.90;;;;;;;16.67;74.20;99936.66;4995400;28;20253;-70
2022/08/23 03:49:00;;;;;;;4.47;2.80;;;;;;;16.62;73.66;99931.81;4995656;28;20647;-70
2022/08/23 03:51:28;;;;;;;3.17;2.43;;;;;;;16.67;73.19;99931.44;4985958;28;20219;-70
2022/08/23 03:53:53;;;;;;;3.10;2.67;;;;;;;16.68;73.65;99938.31;4996792;28;20706;-70
2022/08/23 03:56:35;;;;;;;6.40;2.57;;;;;;;16.56;73.96;99943.56;4990707;28;20172;-70
2022/08/23 03:59:07;;;;;;;3.83;2.77;;;;;;;16.61;75.68;99943.19;4990616;28;20190;-70
2022/08/23 04:01:32;;;;;;;5.93;2.80;;;;;;;16.61;74.52;99946.59;5003414;28;20268;-70
2022/08/23 04:03:58;;;;;;;5.07;2.63;;;;;;;16.65;74.85;99941.16;4993426;28;20195;-59
2022/08/23 04:06:26;;;;;;;3.80;2.23;;;;;;;16.72;74.95;99939.69;4995096;28;20651;-60
2022/08/23 04:08:53;;;;;;;3.10;2.80;;;;;;;16.75;74.68;99950.63;4983767;28;20311;-60
2022/08/23 04:11:19;;;;;;;4.67;2.30;;;;;;;16.77;74.79;99950.53;4984047;28;20227;-60
2022/08/23 04:13:44;;;;;;;4.27;2.10;;;;;;;16.67;76.54;99957.41;4991312;28;20206;-59
2022/08/23 04:16:10;;;;;;;6.00;2.60;;;;;;;16.69;74.31;99963.31;4994618;28;20638;-60
2022/08/23 04:18:35;;;;;;;4.17;2.33;;;;;;;16.85;74.51;99961.09;4995341;28;20243;-61
2022/08/23 04:21:05;;;;;;;5.63;2.97;;;;;;;16.84;73.48;99951.66;4992576;28;20317;-60
2022/08/23 04:23:30;;;;;;;4.30;2.67;;;;;;;16.87;73.86;99966.16;5002161;28;20611;-61
2022/08/23 04:25:56;;;;;;;4.63;2.90;;;;;;;16.89;72.72;99956.47;4994618;28;20195;-61
2022/08/23 04:28:22;;;;;;;6.63;3.13;;;;;;;16.83;73.01;99967.38;4994775;28;20706;-61
2022/08/23 04:30:48;;;;;;;3.97;2.80;;;;;;;16.75;71.63;99966.22;4999267;28;20333;-61
2022/08/23 04:33:14;;;;;;;3.83;2.77;;;;;;;16.76;73.44;99967.06;5002966;28;20211;-61
2022/08/23 04:35:42;;;;;;;4.20;2.60;;;;;;;16.73;74.01;99967.31;4997443;28;20295;-61
2022/08/23 04:38:08;;;;;;;3.67;2.67;;;;;;;16.79;73.49;99966.81;4982534;28;20207;-60
2022/08/23 04:43:18;;;;;;;11.33;2.73;;;;;;;16.77;73.51;99974.72;5003736;28;20670;-60
2022/08/23 04:45:43;;;;;;;3.73;2.40;;;;;;;16.84;73.40;99976.81;4989764;28;20322;-60
2022/08/23 04:48:09;;;;;;;5.60;2.50;;;;;;;16.77;74.32;99979.91;4984599;28;20631;-61
2022/08/23 04:50:35;;;;;;;7.80;2.83;;;;;;;16.84;74.91;99990.63;4988578;28;20598;-60
2022/08/23 04:53:01;;;;;;;4.93;2.80;;;;;;;16.81;74.28;99988.28;5011996;28;20202;-60
2022/08/23 04:55:27;;;;;;;8.30;3.40;;;;;;;16.91;73.90;99985.75;4989533;28;20184;-61
2022/08/23 04:57:53;;;;;;;3.00;2.53;;;;;;;16.94;72.43;99982.91;4992445;28;20183;-60
2022/08/23 05:00:19;;;;;;;11.60;3.37;;;;;;;16.97;71.79;99993.06;4986574;28;20705;-61
2022/08/23 05:02:45;;;;;;;7.13;3.77;;;;;;;16.99;70.98;100005.94;5007337;28;20175;-60
2022/08/23 05:05:10;;;;;;;5.33;2.60;;;;;;;17.15;71.00;100000.28;4993876;28;20299;-60
2022/08/23 05:07:37;;;;;;;6.17;3.33;;;;;;;17.27;70.90;100000.06;4994012;28;20270;-60
2022/08/23 05:10:05;;;;;;;13.83;3.63;;;;;;;17.31;70.63;100005.81;4989093;28;20187;-60
2022/08/23 05:12:31;;;;;;;6.57;3.17;;;;;;;17.34;71.50;100012.53;5008973;28;20207;-60
2022/08/23 05:14:56;;;;;;;4.87;2.90;;;;;;;17.36;70.93;100013.22;5008986;28;20179;-61
2022/08/23 05:17:21;;;;;;;8.47;2.83;;;;;;;17.46;71.84;100013.28;4994207;28;20706;-61
2022/08/23 05:19:47;;;;;;;4.67;3.10;;;;;;;17.45;71.97;100015.03;4994139;28;20183;-61
2022/08/23 05:22:12;;;;;;;9.33;3.17;;;;;;;17.61;71.49;100022.38;4999120;28;20277;-61
2022/08/23 05:24:37;;;;;;;7.97;3.50;;;;;;;17.72;71.05;100024.06;5008296;28;20560;-61
2022/08/23 05:27:03;;;;;;;7.07;3.43;;;;;;;17.94;70.10;100030.84;4993763;28;20207;-62
2022/08/23 05:29:28;;;;;;;3.70;2.60;;;;;;;18.04;69.79;100023.88;4992718;28;20647;-61
2022/08/23 05:31:54;;;;;;;6.23;3.90;;;;;;;17.97;70.37;100024.56;4984947;28;20235;-61
2022/08/23 05:34:19;;;;;;;5.50;3.17;;;;;;;18.05;68.77;100028.13;4987232;28;20655;-61
2022/08/23 05:36:44;;;;;;;7.27;3.20;;;;;;;18.13;69.76;100034.47;4995861;28;20191;-61
2022/08/23 05:39:10;;;;;;;3.80;3.07;;;;;;;18.26;68.63;100029.81;4979959;28;20286;-61
2022/08/23 05:41:35;;;;;;;5.73;2.70;;;;;;;18.44;68.17;100029.97;4995708;28;20231;-61
2022/08/23 05:44:01;;;;;;;5.37;3.17;;;;;;;18.47;68.14;100036.69;4996350;28;20202;-61
2022/08/23 05:46:26;;;;;;;6.27;3.27;;;;;;;18.63;67.16;100041.34;4993769;28;20191;-61
2022/08/23 05:48:51;;;;;;;5.60;2.80;;;;;;;18.71;65.64;100044.09;4993510;28;20638;-61
2022/08/23 05:51:23;;;;;;;6.17;2.80;;;;;;;18.85;64.79;100043.69;4992886;28;20211;-61
2022/08/23 05:53:50;;;;;;;6.57;3.10;;;;;;;18.87;65.04;100048.75;4992633;28;20191;-61
2022/08/23 05:56:17;;;;;;;6.90;3.13;;;;;;;19.24;63.08;100048.03;4992974;28;20180;-61
2022/08/23 05:58:43;;;;;;;5.20;2.60;;;;;;;19.43;62.09;100054.97;4993339;28;20211;-62
2022/08/23 06:01:09;;;;;;;4.87;2.80;;;;;;;19.51;60.90;100052.47;4991640;28;20234;-61
2022/08/23 06:03:35;;;;;;;3.93;2.63;;;;;;;19.52;61.74;100058.50;4988800;28;20176;-62
2022/08/23 06:06:02;;;;;;;8.23;2.90;;;;;;;19.80;59.77;100056.75;4989145;28;20188;-62
2022/08/23 06:08:27;;;;;;;6.83;2.50;;;;;;;19.60;59.76;100063.84;4992600;28;20179;-62
2022/08/23 06:11:02;;;;;;;5.20;2.87;;;;;;;19.68;60.21;100065.72;4989327;28;20301;-62
2022/08/23 06:13:27;;;;;;;5.03;2.60;;;;;;;19.94;59.48;100058.06;5000997;28;20167;-62
2022/08/23 06:15:53;;;;;;;6.30;2.57;;;;;;;19.98;58.73;100061.22;4992658;28;20198;-61
2022/08/23 06:18:18;;;;;;;8.73;3.27;;;;;;;20.22;57.91;100071.13;4992599;28;20226;-61
2022/08/23 06:20:44;;;;;;;4.40;2.60;;;;;;;20.27;57.63;100068.06;4988042;28;20237;-61
2022/08/23 06:23:09;;;;;;;7.53;2.77;;;;;;;20.30;57.22;100060.75;5003102;28;20203;-61
2022/08/23 06:25:36;;;;;;;5.47;2.70;;;;;;;20.51;56.16;100066.66;4992634;28;20199;-61
2022/08/23 06:28:02;;;;;;;10.53;3.37;;;;;;;20.37;56.17;100070.63;4988938;28;20193;-61
2022/08/23 06:30:27;;;;;;;5.60;2.70;;;;;;;20.58;55.63;100065.09;4975266;28;20245;-61
2022/08/23 06:32:53;;;;;;;5.53;3.00;;;;;;;20.77;54.71;100069.38;4991620;28;20283;-61
2022/08/23 06:35:18;;;;;;;4.60;2.80;;;;;;;20.70;54.89;100071.75;4994801;28;20557;-61
2022/08/23 06:37:43;;;;;;;3.90;2.70;;;;;;;20.62;54.68;100074.28;4984957;28;20188;-61
2022/08/23 06:40:09;;;;;;;4.33;2.60;;;;;;;20.62;54.42;100077.69;4977540;28;20234;-61
2022/08/23 06:42:35;;;;;;;7.13;2.63;;;;;;;20.85;53.63;100079.91;5006950;28;20174;-61
2022/08/23 06:45:00;;;;;;;4.83;2.43;;;;;;;21.13;52.40;100071.91;4991976;28;20203;-61
2022/08/23 06:47:26;;;;;;;7.87;2.80;;;;;;;21.56;50.65;100075.47;4992574;28;20631;-61
2022/08/23 06:49:51;;;;;;;4.43;2.63;;;;;;;22.13;48.31;100083.69;4992503;28;20186;-61
2022/08/23 06:52:16;;;;;;;6.87;2.97;;;;;;;22.58;46.83;100087.75;5003905;28;20221;-61
2022/08/23 06:54:43;;;;;;;6.57;2.17;;;;;;;23.47;43.68;100079.19;4992187;28;20211;-62
2022/08/23 06:57:08;;;;;;;6.10;2.23;;;;;;;24.50;41.25;100078.19;4992119;28;20270;-62
2022/08/23 06:59:33;;;;;;;6.53;2.30;;;;;;;25.23;39.37;100084.81;4988235;28;20680;-62
2022/08/23 07:02:02;;;;;;;4.47;2.47;;;;;;;25.62;38.98;100081.94;4967015;28;20215;-61
2022/08/23 07:04:30;;;;;;;9.25;2.90;;;;;;;26.33;36.76;100079.75;4973555;28;20639;-62
2022/08/23 07:06:57;;;;;;;4.68;2.28;;;;;;;27.70;34.55;100083.00;4979862;28;20195;-62
2022/08/23 07:09:23;;;;;;;6.45;2.40;;;;;;;28.24;33.28;100091.94;4990814;28;20211;-62
2022/08/23 07:11:49;;;;;;;7.47;2.38;;;;;;;28.96;31.70;100105.47;4995333;28;20611;-61
2022/08/23 07:14:17;;;;;;;4.43;2.20;;;;;;;27.60;33.75;100104.50;4993102;28;20266;-61
2022/08/23 07:16:46;;;;;;;6.07;2.38;;;;;;;28.37;32.14;100109.66;4965132;28;20277;-61
2022/08/23 07:19:12;;;;;;;8.10;2.75;;;;;;;28.56;32.22;100101.97;4987140;28;20191;-61
2022/08/23 07:21:39;;;;;;;4.55;2.15;;;;;;;28.81;31.37;100108.31;4980877;28;20285;-61
2022/08/23 07:24:04;;;;;;;7.40;2.60;;;;;;;29.54;30.39;100103.13;4993759;28;20274;-61
2022/08/23 07:26:30;;;;;;;7.43;2.40;;;;;;;29.68;30.27;100102.03;4989524;28;20282;-61
2022/08/23 07:28:56;;;;;;;5.15;2.38;;;;;;;28.12;32.31;100106.75;4996277;28;20179;-61
2022/08/23 07:31:26;;;;;;;6.97;2.28;;;;;;;29.13;30.98;100107.69;4967693;28;20234;-62
2022/08/23 07:33:52;;;;;;;5.93;2.35;;;;;;;30.03;29.58;100099.06;4989205;28;20237;-62
2022/08/23 07:36:21;;;;;;;7.20;2.55;;;;;;;29.89;29.63;100100.97;4995966;28;20637;-61
2022/08/23 07:38:46;;;;;;;6.07;2.10;;;;;;;29.65;29.95;100105.13;4982277;28;20270;-61
2022/08/23 07:41:13;;;;;;;4.80;2.42;;;;;;;28.58;31.28;100105.19;4995103;28;20313;-61
2022/08/23 07:43:39;;;;;;;5.25;2.03;;;;;;;29.96;29.27;100100.94;5001850;28;20203;-61
2022/08/23 07:46:06;;;;;;;4.78;1.98;;;;;;;31.59;27.85;100102.91;4995245;28;20202;-61
2022/08/23 07:48:32;;;;;;;3.60;1.88;;;;;;;31.51;26.51;100106.66;4996136;28;20184;-62
2022/08/23 07:51:01;;;;;;;5.40;2.22;;;;;;;29.88;28.23;100112.59;4993045;28;20257;-62
2022/08/23 07:53:27;;;;;;;9.00;2.40;;;;;;;30.75;27.31;100111.28;5010115;28;20211;-62
2022/08/23 07:55:53;;;;;;;3.67;2.22;;;;;;;31.55;26.89;100105.19;4995350;28;20266;-61
2022/08/23 07:58:23;;;;;;;3.97;2.42;;;;;;;32.85;25.23;100109.38;4995686;28;20654;-62
2022/08/23 08:00:49;;;;;;;7.22;2.58;;;;;;;33.55;24.63;100114.88;4991289;28;20230;-62
2022/08/23 08:03:15;;;;;;;5.22;1.92;;;;;;;33.25;25.27;100123.81;4991270;28;20523;-61
2022/08/23 08:05:40;;;;;;;5.13;2.25;;;;;;;33.26;25.02;100122.78;4987963;28;20207;-61
2022/08/23 08:08:08;;;;;;;5.40;2.40;;;;;;;33.45;24.56;100124.31;4995404;28;20194;-61
2022/08/23 08:10:40;;;;;;;5.03;2.42;;;;;;;33.39;24.58;100127.91;4987481;28;20318;-62
2022/08/23 08:13:07;;;;;;;6.88;2.45;;;;;;;34.64;22.90;100133.69;4994083;28;20191;-62
2022/08/23 08:15:32;;;;;;;7.97;2.78;;;;;;;35.02;22.51;100127.59;4994950;28;20278;-61
2022/08/23 08:17:58;;;;;;;11.65;2.25;;;;;;;35.89;22.15;100134.31;4994909;28;20302;-60
2022/08/23 08:20:26;;;;;;;3.38;2.10;;;;;;;36.30;22.02;100132.84;4988076;28;20237;-61
2022/08/23 08:22:52;;;;;;;5.75;2.45;;;;;;;36.10;21.15;100141.50;5004897;28;20262;-61
2022/08/23 08:25:17;;;;;;;7.97;2.38;;;;;;;35.41;22.40;100132.13;4994696;28;20314;-61
2022/08/23 08:27:43;;;;;;;8.30;2.53;;;;;;;36.41;21.70;100139.13;4994941;28;20180;-61
2022/08/23 08:30:11;;;;;;;7.30;2.33;;;;;;;36.04;21.26;100137.16;4988730;28;20186;-61
2022/08/23 08:32:36;;;;;;;9.68;2.40;;;;;;;36.08;20.97;100140.94;4997661;28;20183;-61
2022/08/23 08:35:03;;;;;;;9.55;2.58;;;;;;;35.61;21.47;100141.47;5001347;28;20186;-61
2022/08/23 08:37:29;;;;;;;5.47;2.22;;;;;;;35.29;22.27;100142.13;4986233;28;20198;-61
2022/08/23 08:39:55;;;;;;;6.60;2.67;;;;;;;36.12;21.34;100144.72;4987271;28;20227;-61
2022/08/23 08:42:40;;;;;;;3.65;2.22;;;;;;;36.50;21.48;100150.19;4999925;28;20345;-61
2022/08/23 08:45:13;;;;;;;7.18;2.83;;;;;;;35.95;21.16;100146.69;4995185;28;20222;-62
2022/08/23 08:47:52;;;;;;;6.60;2.47;;;;;;;35.02;21.94;100146.31;4995759;28;20183;-61
2022/08/23 08:50:27;;;;;;;5.80;2.75;;;;;;;35.00;22.33;100136.91;4986903;28;20205;-61
2022/08/23 08:53:03;;;;;;;3.75;2.08;;;;;;;35.05;22.13;100137.78;5013249;28;20183;-61
2022/08/23 08:55:42;;;;;;;6.10;2.35;;;;;;;36.30;20.96;100142.75;4994252;28;20187;-61
2022/08/23 08:58:18;;;;;;;5.22;2.65;;;;;;;34.69;22.09;100136.44;4994673;28;20195;-61
2022/08/23 09:00:45;;;;;;;7.55;2.60;;;;;;;33.93;23.46;100140.19;4990006;28;20234;-61
2022/08/23 09:03:20;;;;;;;5.18;2.40;;;;;;;34.43;22.72;100141.34;5004744;28;20250;-61
2022/08/23 09:06:27;;;;;;;5.55;3.10;;;;;;;35.85;21.24;100152.72;4994415;28;20206;-61
2022/08/23 09:09:29;;;;;;;5.63;2.47;;;;;;;36.91;20.49;100152.38;4992650;28;20188;-61
2022/08/23 09:12:15;;;;;;;3.40;2.50;;;;;;;37.34;19.92;100150.50;4982981;28;20275;-62
2022/08/23 09:14:46;;;;;;;5.57;2.55;;;;;;;35.78;21.08;100147.56;4991937;28;20210;-61
2022/08/23 09:17:38;;;;;;;8.27;2.67;;;;;;;35.99;21.23;100156.63;4992300;28;20261;-61
2022/08/23 09:20:05;;;;;;;8.20;2.70;;;;;;;34.92;22.87;100140.81;4968221;28;20184;-61
2022/08/23 09:22:39;;;;;;;3.58;2.58;;;;;;;35.09;22.16;100140.78;4970563;28;20205;-62
2022/08/23 09:25:09;;;;;;;5.97;2.38;;;;;;;36.99;20.14;100141.19;4971736;28;20191;-62
2022/08/23 09:27:35;;;;;;;5.05;2.53;;;;;;;37.80;19.96;100139.13;4972031;28;20683;-61
2022/08/23 09:30:00;;;;;;;3.85;2.33;;;;;;;38.00;20.24;100141.06;4972075;28;20196;-62
2022/08/23 09:32:35;;;;;;;5.95;2.40;;;;;;;38.66;19.32;100138.69;4978214;28;20219;-61
2022/08/23 09:35:18;;;;;;;7.32;2.45;;;;;;;38.84;18.42;100130.09;4969652;28;20184;-62
2022/08/23 09:37:56;;;;;;;4.97;2.30;;;;;;;38.74;18.04;100136.25;4972180;28;20207;-61
2022/08/23 09:40:36;;;;;;;6.78;2.17;;;;;;;38.97;18.62;100134.06;4964178;28;20240;-61
2022/08/23 09:43:11;;;;;;;3.95;2.60;;;;;;;39.48;18.66;100132.31;4986414;28;20220;-62
2022/08/23 09:45:41;;;;;;;4.00;2.45;;;;;;;39.20;17.52;100135.34;4974116;28;20218;-62
2022/08/23 09:48:12;;;;;;;5.95;2.45;;;;;;;38.92;18.36;100127.91;4973948;28;20180;-62
2022/08/23 09:50:44;;;;;;;4.13;2.22;;;;;;;39.18;17.97;100131.31;4958236;28;20234;-61
2022/08/23 09:53:13;;;;;;;4.93;2.30;;;;;;;38.60;19.30;100127.13;4978016;28;20632;-62
2022/08/23 09:55:50;;;;;;;5.03;2.38;;;;;;;38.47;19.25;100115.06;4957539;28;20196;-61
2022/08/23 09:58:39;;;;;;;4.15;2.60;;;;;;;37.20;19.92;100114.47;4954600;28;20547;-63
2022/08/23 10:01:20;;;;;;;10.65;2.75;;;;;;;38.01;19.09;100115.81;4960885;28;20688;-62
2022/08/23 10:04:04;;;;;;;5.38;2.30;;;;;;;38.39;19.21;100112.91;4965464;28;20279;-61
2022/08/23 10:06:33;;;;;;;3.90;2.00;;;;;;;38.33;19.35;100117.50;4957185;28;20209;-62
2022/08/23 10:09:03;;;;;;;8.27;2.95;;;;;;;37.63;19.32;100116.00;4955135;28;20184;-62
2022/08/23 10:11:33;;;;;;;7.18;2.42;;;;;;;39.50;18.20;100117.50;4978953;28;20231;-63
2022/08/23 10:13:58;;;;;;;3.05;2.17;;;;;;;38.20;19.16;100110.72;4961252;28;20737;-62
2022/08/23 10:17:18;;;;;;;3.50;2.10;;;;;;;38.59;19.04;100123.63;4965771;28;20636;-62
2022/08/23 10:19:54;;;;;;;4.40;2.20;;;;;;;38.67;18.89;100119.59;5026429;28;20187;-61
2022/08/23 10:22:22;;;;;;;6.25;2.50;;;;;;;38.21;19.40;100112.34;5016089;28;20329;-62
2022/08/23 10:25:03;;;;;;;3.38;2.40;;;;;;;35.59;21.44;100116.81;5009381;28;20229;-61
2022/08/23 10:30:53;;;;;;;5.60;2.22;;;;;;;37.22;19.83;100118.50;4997649;28;20231;-62
2022/08/23 10:33:25;;;;;;;5.90;2.47;;;;;;;37.63;19.69;100116.00;5017143;28;20178;-62
2022/08/23 10:36:26;;;;;;;2.70;2.42;;;;;;;38.16;19.15;100114.25;5009258;28;20182;-62
2022/08/23 10:39:02;;;;;;;5.40;2.47;;;;;;;36.86;20.60;100109.47;5008845;28;20403;-61
2022/08/23 10:41:56;;;;;;;5.85;2.30;;;;;;;33.85;23.87;100101.38;5011260;28;20740;-60
2022/08/23 10:45:07;;;;;;;4.43;2.70;;;;;;;33.33;25.10;100102.19;5008393;28;20291;-61
2022/08/23 10:47:40;;;;;;;3.05;2.25;;;;;;;32.05;26.23;100110.53;4950986;29;20583;-62
2022/08/23 10:50:11;;;;;;;4.63;2.50;;;;;;;31.80;27.61;100101.63;4929376;28;20206;-61
2022/08/23 10:52:43;;;;;;;3.58;2.60;;;;;;;30.88;28.04;100094.41;4948652;28;20200;-62
2022/08/23 10:55:23;;;;;;;4.55;2.42;;;;;;;30.33;28.62;100093.19;4950797;29;20196;-62
2022/08/23 10:57:52;;;;;;;3.38;2.60;;;;;;;29.82;29.57;100083.44;4947367;29;20196;-61
2022/08/23 11:00:21;;;;;;;6.60;2.63;;;;;;;29.98;30.19;100085.66;4924793;28;20203;-61
2022/08/23 11:02:56;;;;;;;4.38;2.60;;;;;;;29.52;30.51;100087.44;4949307;28;20536;-62
2022/08/23 11:05:28;;;;;;;5.65;2.63;;;;;;;29.71;31.04;100079.63;4950500;28;20308;-61
2022/08/23 11:08:06;;;;;;;4.78;2.97;;;;;;;29.91;30.65;100077.72;4951096;28;20196;-62
2022/08/23 11:10:43;;;;;;;6.50;2.80;;;;;;;29.97;30.85;100072.56;4940809;28;20231;-62
2022/08/23 11:13:11;;;;;;;6.85;3.00;;;;;;;30.26;30.61;100076.50;4943332;28;20616;-60
2022/08/23 11:16:05;;;;;;;4.35;2.75;;;;;;;30.03;30.43;100071.72;4941292;28;20224;-61
2022/08/23 11:18:39;;;;;;;6.00;2.38;;;;;;;29.70;30.93;100075.34;4948949;28;20204;-61
2022/08/23 11:21:16;;;;;;;3.83;2.67;;;;;;;29.53;31.02;100075.00;4953169;28;20317;-61
2022/08/23 11:23:57;;;;;;;6.53;2.80;;;;;;;29.10;32.06;100065.69;4987205;28;20553;-60
2022/08/23 11:26:25;;;;;;;5.43;2.88;;;;;;;29.33;31.25;100059.97;4953302;28;20204;-60
2022/08/23 11:28:52;;;;;;;5.40;2.90;;;;;;;29.39;31.34;100059.16;4954212;28;20185;-61
2022/08/23 11:31:29;;;;;;;4.88;2.50;;;;;;;29.28;31.61;100065.88;4964631;28;20562;-61
2022/08/23 11:34:10;;;;;;;6.32;3.15;;;;;;;29.26;30.92;100059.16;4962389;28;20432;-61
2022/08/23 11:36:35;;;;;;;4.13;2.85;;;;;;;29.33;31.14;100056.53;4960165;28;20264;-61
2022/08/23 11:39:03;;;;;;;4.95;2.63;;;;;;;29.43;31.01;100051.59;4955017;28;20633;-61
2022/08/23 11:41:55;;;;;;;8.18;3.00;;;;;;;29.55;30.66;100054.41;4966702;28;20231;-61
2022/08/23 11:44:31;;;;;;;6.10;2.50;;;;;;;29.39;31.32;100047.75;4984567;28;20199;-61
2022/08/23 11:47:00;;;;;;;2.88;2.45;;;;;;;29.14;30.76;100054.50;4998117;28;20235;-62
2022/08/23 11:49:53;;;;;;;6.43;2.80;;;;;;;29.08;31.46;100049.22;4983846;28;20196;-62
2022/08/23 11:52:51;;;;;;;4.80;2.70;;;;;;;29.46;31.05;100052.00;4977741;28;20247;-61
2022/08/23 11:55:38;;;;;;;4.90;2.67;;;;;;;29.79;29.98;100052.88;4990384;28;20234;-63